createdAt,value
2018-09-09T00:00:45.040Z,13.10
2018-09-09T00:03:16.303Z,12.90
2018-09-09T00:05:47.565Z,12.70
2018-09-09T00:08:18.812Z,12.80
2018-09-09T00:10:50.081Z,12.70
2018-09-09T00:13:21.330Z,12.70
2018-09-09T00:15:52.589Z,12.60
2018-09-09T00:18:23.828Z,12.70
2018-09-09T00:20:55.091Z,12.70
2018-09-09T00:23:26.348Z,12.90
2018-09-09T00:25:57.646Z,12.80
2018-09-09T00:28:28.906Z,12.70
2018-09-09T00:31:00.184Z,12.60
2018-09-09T00:33:31.439Z,12.50
2018-09-09T00:36:02.709Z,12.50
2018-09-09T00:38:33.958Z,12.40
2018-09-09T00:41:05.239Z,12.50
2018-09-09T00:43:37.040Z,12.40
2018-09-09T00:46:08.305Z,12.50
2018-09-09T00:48:39.558Z,12.40
2018-09-09T00:51:16.706Z,12.50
2018-09-09T00:53:48.220Z,12.40
2018-09-09T00:56:19.520Z,12.40
2018-09-09T00:58:50.786Z,12.50
2018-09-09T01:01:22.090Z,12.40
2018-09-09T01:03:53.350Z,12.50
2018-09-09T01:06:24.632Z,12.40
2018-09-09T01:08:55.911Z,12.20
2018-09-09T01:11:27.214Z,12.10
2018-09-09T01:13:58.481Z,12.10
2018-09-09T01:16:29.737Z,12.20
2018-09-09T01:19:00.987Z,12.20
2018-09-09T01:21:32.258Z,12.30
2018-09-09T01:24:03.557Z,12.20
2018-09-09T01:26:34.828Z,12.30
2018-09-09T01:29:06.085Z,12.40
2018-09-09T01:31:37.362Z,12.10
2018-09-09T01:34:08.626Z,12.00
2018-09-09T01:36:39.919Z,11.80
2018-09-09T01:39:11.188Z,11.90
2018-09-09T01:41:42.463Z,12.00
2018-09-09T01:44:13.714Z,12.20
2018-09-09T01:46:44.994Z,12.30
2018-09-09T01:49:16.267Z,12.10
2018-09-09T01:51:47.529Z,12.20
2018-09-09T01:54:18.781Z,12.30
2018-09-09T01:56:50.037Z,12.20
2018-09-09T01:59:21.277Z,12.00
2018-09-09T02:01:52.629Z,11.90
2018-09-09T02:04:23.877Z,11.80
2018-09-09T02:06:55.133Z,11.80
2018-09-09T02:09:26.385Z,11.90
2018-09-09T02:11:57.664Z,11.90
2018-09-09T02:14:28.935Z,11.80
2018-09-09T02:17:00.201Z,11.90
2018-09-09T02:19:31.445Z,12.00
2018-09-09T02:22:03.942Z,11.90
2018-09-09T02:24:35.194Z,11.80
2018-09-09T02:27:06.499Z,11.80
2018-09-09T02:29:37.762Z,11.90
2018-09-09T02:32:09.018Z,11.70
2018-09-09T02:34:40.309Z,11.70
2018-09-09T02:37:11.586Z,11.60
2018-09-09T02:39:42.835Z,11.50
2018-09-09T02:42:14.110Z,11.50
2018-09-09T02:44:45.391Z,11.70
2018-09-09T02:47:16.669Z,11.80
2018-09-09T02:49:47.917Z,11.90
2018-09-09T02:52:19.185Z,11.70
2018-09-09T02:54:50.452Z,11.50
2018-09-09T02:57:21.729Z,11.60
2018-09-09T02:59:52.974Z,11.80
2018-09-09T03:02:24.259Z,11.70
2018-09-09T03:04:55.526Z,11.60
2018-09-09T03:07:26.782Z,11.30
2018-09-09T03:09:58.060Z,11.30
2018-09-09T03:12:29.334Z,11.50
2018-09-09T03:15:00.584Z,11.70
2018-09-09T03:17:31.853Z,11.40
2018-09-09T03:20:03.105Z,11.70
2018-09-09T03:22:34.365Z,11.80
2018-09-09T03:25:05.621Z,11.70
2018-09-09T03:27:36.909Z,11.40
2018-09-09T03:30:08.178Z,11.30
2018-09-09T03:32:39.463Z,11.50
2018-09-09T03:35:10.723Z,11.50
2018-09-09T03:37:42.010Z,11.40
2018-09-09T03:40:13.271Z,11.40
2018-09-09T03:42:44.545Z,11.20
2018-09-09T03:45:15.811Z,11.20
2018-09-09T03:47:47.078Z,11.30
2018-09-09T03:50:18.348Z,11.20
2018-09-09T03:52:49.601Z,11.40
2018-09-09T03:55:20.862Z,11.30
2018-09-09T03:57:52.167Z,11.30
2018-09-09T04:00:23.426Z,11.20
2018-09-09T04:02:54.701Z,11.30
2018-09-09T04:05:25.973Z,11.20
2018-09-09T04:07:57.246Z,11.10
2018-09-09T04:10:28.534Z,11.00
2018-09-09T04:12:59.807Z,11.00
2018-09-09T04:15:31.084Z,10.90
2018-09-09T04:18:02.345Z,11.00
2018-09-09T04:20:33.590Z,10.90
2018-09-09T04:23:04.849Z,10.90
2018-09-09T04:25:36.105Z,10.90
2018-09-09T04:28:07.391Z,10.80
2018-09-09T04:30:38.649Z,11.00
2018-09-09T04:33:09.912Z,11.00
2018-09-09T04:35:41.177Z,11.20
2018-09-09T04:38:12.442Z,11.30
2018-09-09T04:40:43.706Z,11.00
2018-09-09T04:43:14.991Z,10.70
2018-09-09T04:45:46.238Z,10.70
2018-09-09T04:48:17.769Z,10.70
2018-09-09T04:50:49.035Z,10.60
2018-09-09T04:53:20.298Z,10.80
2018-09-09T04:55:51.557Z,10.90
2018-09-09T04:58:22.887Z,10.80
2018-09-09T05:00:54.146Z,10.80
2018-09-09T05:03:25.405Z,10.70
2018-09-09T05:05:56.684Z,10.60
2018-09-09T05:08:27.942Z,10.70
2018-09-09T05:10:59.185Z,10.70
2018-09-09T05:13:30.454Z,10.80
2018-09-09T05:16:01.719Z,10.60
2018-09-09T05:18:32.985Z,10.60
2018-09-09T05:21:04.245Z,10.50
2018-09-09T05:23:35.545Z,10.50
2018-09-09T05:26:06.786Z,10.60
2018-09-09T05:28:38.092Z,10.50
2018-09-09T05:31:09.349Z,10.80
2018-09-09T05:33:40.647Z,10.80
2018-09-09T05:36:11.908Z,10.70
2018-09-09T05:38:43.173Z,10.70
2018-09-09T05:41:14.444Z,10.70
2018-09-09T05:43:45.726Z,10.90
2018-09-09T05:46:16.978Z,10.90
2018-09-09T05:48:48.270Z,10.90
2018-09-09T05:51:19.517Z,11.10
2018-09-09T05:53:50.823Z,11.20
2018-09-09T05:56:22.029Z,11.10
2018-09-09T05:58:53.329Z,11.00
2018-09-09T06:01:24.656Z,11.00
2018-09-09T06:03:55.918Z,11.00
2018-09-09T06:06:27.169Z,11.30
2018-09-09T06:08:58.460Z,11.40
2018-09-09T06:11:29.720Z,11.40
2018-09-09T06:14:00.998Z,11.60
2018-09-09T06:16:32.250Z,11.70
2018-09-09T06:19:03.730Z,11.70
2018-09-09T06:21:35.026Z,12.00
2018-09-09T06:24:06.295Z,12.00
2018-09-09T06:26:37.550Z,12.20
2018-09-09T06:29:08.844Z,12.30
2018-09-09T06:31:40.090Z,12.20
2018-09-09T06:34:11.391Z,12.00
2018-09-09T06:36:42.651Z,12.10
2018-09-09T06:39:13.917Z,12.10
2018-09-09T06:41:45.161Z,12.30
2018-09-09T06:44:16.439Z,12.30
2018-09-09T06:46:47.701Z,12.20
2018-09-09T06:49:18.967Z,12.20
2018-09-09T06:51:50.263Z,12.10
2018-09-09T06:54:21.549Z,12.20
2018-09-09T06:56:53.125Z,12.40
2018-09-09T06:59:24.420Z,12.40
2018-09-09T07:01:55.673Z,12.60
2018-09-09T07:04:26.954Z,12.80
2018-09-09T07:06:58.218Z,13.00
2018-09-09T07:09:29.489Z,13.10
2018-09-09T07:12:00.886Z,13.30
2018-09-09T07:14:32.030Z,13.40
2018-09-09T07:17:03.512Z,13.50
2018-09-09T07:19:34.855Z,13.80
2018-09-09T07:22:06.107Z,13.80
2018-09-09T07:24:37.378Z,14.00
2018-09-09T07:27:08.637Z,14.30
2018-09-09T07:29:40.070Z,14.50
2018-09-09T07:32:11.498Z,14.80
2018-09-09T07:34:42.845Z,15.10
2018-09-09T07:37:14.140Z,15.20
2018-09-09T07:39:45.389Z,15.40
2018-09-09T07:42:16.651Z,15.70
2018-09-09T07:44:47.914Z,15.90
2018-09-09T07:47:19.187Z,16.10
2018-09-09T07:49:50.446Z,16.30
2018-09-09T07:52:21.693Z,16.40
2018-09-09T07:54:52.954Z,16.80
2018-09-09T07:57:24.208Z,17.00
2018-09-09T07:59:55.500Z,17.40
2018-09-09T08:02:26.769Z,17.70
2018-09-09T08:04:58.073Z,17.90
2018-09-09T08:07:29.316Z,18.00
2018-09-09T08:10:00.735Z,18.40
2018-09-09T08:12:31.985Z,18.70
2018-09-09T08:15:03.245Z,18.80
2018-09-09T08:17:34.525Z,19.00
2018-09-09T08:20:05.812Z,19.30
2018-09-09T08:22:37.074Z,19.20
2018-09-09T08:25:08.337Z,19.30
2018-09-09T08:27:39.600Z,19.60
2018-09-09T08:30:10.913Z,19.80
2018-09-09T08:32:42.201Z,20.00
2018-09-09T08:35:13.556Z,19.90
2018-09-09T08:37:44.819Z,19.90
2018-09-09T08:40:16.089Z,20.00
2018-09-09T08:42:47.378Z,20.10
2018-09-09T08:45:18.700Z,20.00
2018-09-09T08:47:49.905Z,20.10
2018-09-09T08:50:21.171Z,20.20
2018-09-09T08:52:52.417Z,20.30
2018-09-09T08:55:23.677Z,20.70
2018-09-09T08:57:54.938Z,21.00
2018-09-09T09:00:26.217Z,21.00
2018-09-09T09:02:57.559Z,21.30
2018-09-09T09:05:28.814Z,21.70
2018-09-09T09:08:00.190Z,21.90
2018-09-09T09:10:31.533Z,22.10
2018-09-09T09:13:02.791Z,22.20
2018-09-09T09:15:34.071Z,22.20
2018-09-09T09:18:05.321Z,22.40
2018-09-09T09:20:36.612Z,22.70
2018-09-09T09:23:07.853Z,23.10
2018-09-09T09:25:44.891Z,23.40
2018-09-09T09:28:16.164Z,23.60
2018-09-09T09:30:47.601Z,23.30
2018-09-09T09:33:18.731Z,23.70
2018-09-09T09:35:52.142Z,23.70
2018-09-09T09:38:23.439Z,24.10
2018-09-09T09:40:54.715Z,24.10
2018-09-09T09:43:25.977Z,24.30
2018-09-09T09:45:57.259Z,24.30
2018-09-09T09:48:28.523Z,24.30
2018-09-09T09:50:59.925Z,24.00
2018-09-09T09:53:31.181Z,24.20
2018-09-09T09:56:02.437Z,24.10
2018-09-09T09:58:33.693Z,23.80
2018-09-09T10:01:06.657Z,24.00
2018-09-09T10:03:38.061Z,23.80
2018-09-09T10:06:09.311Z,23.80
2018-09-09T10:08:40.584Z,24.50
2018-09-09T10:11:11.872Z,24.30
2018-09-09T10:13:43.204Z,24.40
2018-09-09T10:16:14.485Z,24.40
2018-09-09T10:18:45.734Z,24.10
2018-09-09T10:21:17.015Z,24.30
2018-09-09T10:23:48.351Z,24.50
2018-09-09T10:26:19.557Z,24.20
2018-09-09T10:28:50.894Z,24.60
2018-09-09T10:31:22.195Z,24.60
2018-09-09T10:33:53.449Z,25.10
2018-09-09T10:36:24.708Z,25.00
2018-09-09T10:38:55.963Z,24.70
2018-09-09T10:41:27.238Z,24.70
2018-09-09T10:43:58.515Z,25.00
2018-09-09T10:46:29.826Z,25.30
2018-09-09T10:49:01.176Z,24.90
2018-09-09T10:51:32.470Z,24.90
2018-09-09T10:54:04.641Z,24.90
2018-09-09T10:56:35.919Z,25.00
2018-09-09T10:59:07.269Z,25.20
2018-09-09T11:01:38.564Z,24.80
2018-09-09T11:04:09.877Z,24.80
2018-09-09T11:06:41.179Z,24.70
2018-09-09T11:09:12.427Z,24.40
2018-09-09T11:11:43.707Z,24.40
2018-09-09T11:14:14.961Z,24.20
2018-09-09T11:16:46.242Z,24.20
2018-09-09T11:19:17.491Z,24.10
2018-09-09T11:21:48.749Z,23.90
2018-09-09T11:24:20.036Z,24.10
2018-09-09T11:26:51.316Z,24.50
2018-09-09T11:29:22.613Z,24.80
2018-09-09T11:31:53.896Z,25.10
2018-09-09T11:34:25.149Z,25.20
2018-09-09T11:36:56.422Z,25.30
2018-09-09T11:39:27.726Z,25.00
2018-09-09T11:41:59.006Z,25.20
2018-09-09T11:44:30.295Z,25.50
2018-09-09T11:47:01.585Z,25.80
2018-09-09T11:49:32.854Z,25.60
2018-09-09T11:52:04.128Z,25.50
2018-09-09T11:54:35.509Z,25.50
2018-09-09T11:57:06.765Z,25.20
2018-09-09T11:59:38.021Z,25.00
2018-09-09T12:02:09.374Z,24.90
2018-09-09T12:04:40.567Z,25.00
2018-09-09T12:07:11.866Z,25.00
2018-09-09T12:09:43.135Z,24.80
2018-09-09T12:12:14.561Z,25.00
2018-09-09T12:14:45.845Z,25.10
2018-09-09T12:17:17.113Z,25.20
2018-09-09T12:19:48.382Z,25.10
2018-09-09T12:22:19.664Z,25.20
2018-09-09T12:24:50.954Z,25.10
2018-09-09T12:27:22.236Z,25.10
2018-09-09T12:29:53.486Z,24.90
2018-09-09T12:32:24.845Z,25.00
2018-09-09T12:34:56.087Z,25.10
2018-09-09T12:37:27.354Z,25.20
2018-09-09T12:39:58.605Z,24.90
2018-09-09T12:42:29.907Z,25.00
2018-09-09T12:45:07.058Z,24.60
2018-09-09T12:47:44.202Z,24.40
2018-09-09T12:50:15.501Z,24.50
2018-09-09T12:52:46.784Z,24.40
2018-09-09T12:55:18.171Z,24.40
2018-09-09T12:57:49.471Z,24.40
2018-09-09T13:00:20.806Z,24.40
2018-09-09T13:02:52.049Z,24.50
2018-09-09T13:05:23.305Z,24.50
2018-09-09T13:07:54.637Z,24.60
2018-09-09T13:10:25.911Z,24.60
2018-09-09T13:13:02.778Z,24.60
2018-09-09T13:15:34.041Z,24.60
2018-09-09T13:18:05.497Z,24.40
2018-09-09T13:20:36.760Z,24.50
2018-09-09T13:23:08.061Z,24.50
2018-09-09T13:25:39.421Z,24.50
2018-09-09T13:28:10.673Z,24.60
2018-09-09T13:30:42.114Z,24.50
2018-09-09T13:33:13.402Z,24.40
2018-09-09T13:35:44.694Z,24.40
2018-09-09T13:38:15.969Z,24.40
2018-09-09T13:40:53.414Z,24.30
2018-09-09T13:43:24.632Z,24.30
2018-09-09T13:45:55.926Z,24.30
2018-09-09T13:48:27.201Z,24.30
2018-09-09T13:50:58.454Z,24.10
2018-09-09T13:53:29.719Z,24.20
2018-09-09T13:56:01.011Z,24.10
2018-09-09T13:58:32.271Z,24.20
2018-09-09T14:01:03.541Z,24.10
2018-09-09T14:03:34.819Z,24.20
2018-09-09T14:06:06.089Z,24.40
2018-09-09T14:08:38.361Z,24.50
2018-09-09T14:11:09.618Z,24.60
2018-09-09T14:13:40.889Z,24.60
2018-09-09T14:16:12.205Z,24.70
2018-09-09T14:18:43.489Z,24.70
2018-09-09T14:21:14.754Z,24.80
2018-09-09T14:23:46.016Z,24.90
2018-09-09T14:26:17.278Z,24.90
2018-09-09T14:28:48.621Z,24.80
2018-09-09T14:31:19.882Z,24.80
2018-09-09T14:33:51.210Z,24.90
2018-09-09T14:36:22.468Z,24.80
2018-09-09T14:38:53.747Z,24.80
2018-09-09T14:41:25.001Z,24.70
2018-09-09T14:43:56.258Z,24.70
2018-09-09T14:46:27.501Z,24.90
2018-09-09T14:48:58.775Z,24.90
2018-09-09T14:51:30.029Z,24.80
2018-09-09T14:54:01.312Z,24.70
2018-09-09T14:56:32.567Z,24.70
2018-09-09T14:59:03.833Z,24.70
2018-09-09T15:01:35.094Z,24.60
2018-09-09T15:04:06.426Z,24.60
2018-09-09T15:06:37.780Z,24.60
2018-09-09T15:09:10.456Z,24.60
2018-09-09T15:11:41.812Z,24.60
2018-09-09T15:14:13.204Z,24.50
2018-09-09T15:16:44.638Z,24.60
2018-09-09T15:19:15.924Z,24.50
2018-09-09T15:21:47.290Z,24.50
2018-09-09T15:24:18.654Z,24.50
2018-09-09T15:26:50.042Z,24.50
2018-09-09T15:29:21.422Z,24.40
2018-09-09T15:31:52.802Z,24.40
2018-09-09T15:34:24.309Z,24.40
2018-09-09T15:36:55.568Z,24.30
2018-09-09T15:39:26.966Z,24.20
2018-09-09T15:41:58.351Z,24.20
2018-09-09T15:44:29.751Z,24.30
2018-09-09T15:47:01.185Z,24.20
2018-09-09T15:49:32.550Z,24.10
2018-09-09T15:52:03.927Z,24.00
2018-09-09T15:54:35.330Z,23.90
2018-09-09T15:57:06.654Z,24.00
2018-09-09T15:59:38.047Z,24.00
2018-09-09T16:02:09.411Z,23.90
2018-09-09T16:04:40.953Z,24.00
2018-09-09T16:07:12.338Z,24.00
2018-09-09T16:09:43.595Z,24.10
2018-09-09T16:12:14.952Z,24.10
2018-09-09T16:14:46.365Z,24.10
2018-09-09T16:17:17.725Z,24.00
2018-09-09T16:19:49.072Z,24.00
2018-09-09T16:22:20.445Z,23.90
2018-09-09T16:24:51.838Z,23.90
2018-09-09T16:27:23.185Z,24.00
2018-09-09T16:29:54.558Z,23.90
2018-09-09T16:32:25.943Z,23.80
2018-09-09T16:34:57.383Z,23.80
2018-09-09T16:37:28.750Z,23.80
2018-09-09T16:40:00.076Z,23.70
2018-09-09T16:42:31.779Z,23.80
2018-09-09T16:45:03.187Z,23.70
2018-09-09T16:47:34.586Z,23.70
2018-09-09T16:50:06.203Z,23.70
2018-09-09T16:52:37.595Z,23.60
2018-09-09T16:55:09.024Z,23.70
2018-09-09T16:57:40.394Z,23.50
2018-09-09T17:00:11.831Z,23.50
2018-09-09T17:02:43.179Z,23.40
2018-09-09T17:05:14.559Z,23.20
2018-09-09T17:07:45.952Z,23.10
2018-09-09T17:10:17.310Z,22.90
2018-09-09T17:12:48.743Z,22.80
2018-09-09T17:15:20.137Z,22.90
2018-09-09T17:17:51.518Z,23.00
2018-09-09T17:20:22.954Z,22.90
2018-09-09T17:22:54.554Z,22.50
2018-09-09T17:25:25.947Z,22.20
2018-09-09T17:27:57.668Z,21.90
2018-09-09T17:30:29.096Z,21.70
2018-09-09T17:33:00.496Z,21.50
2018-09-09T17:35:31.904Z,21.40
2018-09-09T17:38:03.251Z,21.30
2018-09-09T17:40:34.625Z,21.20
2018-09-09T17:43:05.912Z,21.20
2018-09-09T17:45:37.305Z,21.10
2018-09-09T17:48:08.664Z,20.90
2018-09-09T17:50:40.098Z,20.80
2018-09-09T17:53:11.490Z,20.60
2018-09-09T17:55:42.887Z,20.50
2018-09-09T17:58:14.256Z,20.40
2018-09-09T18:00:45.789Z,20.40
2018-09-09T18:03:17.187Z,20.30
2018-09-09T18:05:48.588Z,20.20
2018-09-09T18:08:19.944Z,20.10
2018-09-09T18:10:51.356Z,20.10
2018-09-09T18:13:22.744Z,20.00
2018-09-09T18:15:54.109Z,19.80
2018-09-09T18:18:25.433Z,19.80
2018-09-09T18:20:56.742Z,19.70
2018-09-09T18:23:28.018Z,19.60
2018-09-09T18:25:59.290Z,19.50
2018-09-09T18:28:30.547Z,19.40
2018-09-09T18:31:01.799Z,19.40
2018-09-09T18:33:33.045Z,19.20
2018-09-09T18:36:04.310Z,19.00
2018-09-09T18:38:35.589Z,18.90
2018-09-09T18:41:06.835Z,18.80
2018-09-09T18:43:38.105Z,18.80
2018-09-09T18:46:09.358Z,18.70
2018-09-09T18:48:40.605Z,18.80
2018-09-09T18:51:11.898Z,18.60
2018-09-09T18:53:43.147Z,18.50
2018-09-09T18:56:14.413Z,18.40
2018-09-09T18:58:45.671Z,18.30
2018-09-09T19:01:16.943Z,18.20
2018-09-09T19:03:48.277Z,18.10
2018-09-09T19:06:19.600Z,18.00
2018-09-09T19:08:50.807Z,18.00
2018-09-09T19:11:22.156Z,17.90
2018-09-09T19:13:53.448Z,17.80
2018-09-09T19:16:24.767Z,17.70
2018-09-09T19:18:56.014Z,17.70
2018-09-09T19:21:27.360Z,17.60
2018-09-09T19:23:58.641Z,17.50
2018-09-09T19:26:29.923Z,17.40
2018-09-09T19:29:01.301Z,17.40
2018-09-09T19:31:32.470Z,17.30
2018-09-09T19:34:03.741Z,17.30
2018-09-09T19:36:35.073Z,17.10
2018-09-09T19:39:06.283Z,17.00
2018-09-09T19:41:37.586Z,17.00
2018-09-09T19:44:08.992Z,17.00
2018-09-09T19:46:40.234Z,17.00
2018-09-09T19:49:11.490Z,16.80
2018-09-09T19:51:42.759Z,16.80
2018-09-09T19:54:14.023Z,16.80
2018-09-09T19:56:45.287Z,16.70
2018-09-09T19:59:16.534Z,16.60
2018-09-09T20:01:47.789Z,16.60
2018-09-09T20:04:19.038Z,16.50
2018-09-09T20:06:50.302Z,16.50
2018-09-09T20:09:21.606Z,16.30
2018-09-09T20:11:52.904Z,16.30
2018-09-09T20:14:24.160Z,16.20
2018-09-09T20:16:55.455Z,16.20
2018-09-09T20:19:26.795Z,16.20
2018-09-09T20:21:58.074Z,16.00
2018-09-09T20:24:29.334Z,16.10
2018-09-09T20:27:00.622Z,16.00
2018-09-09T20:29:31.903Z,15.90
2018-09-09T20:32:03.207Z,15.90
2018-09-09T20:34:34.569Z,15.80
2018-09-09T20:37:05.878Z,15.80
2018-09-09T20:39:37.177Z,15.80
2018-09-09T20:42:08.504Z,15.70
2018-09-09T20:44:39.836Z,15.70
2018-09-09T20:47:11.218Z,15.60
2018-09-09T20:49:42.755Z,15.50
2018-09-09T20:52:14.204Z,15.30
2018-09-09T20:54:45.571Z,15.40
2018-09-09T20:57:17.000Z,15.30
2018-09-09T20:59:48.407Z,15.40
2018-09-09T21:02:19.777Z,15.40
2018-09-09T21:04:51.247Z,15.30
2018-09-09T21:07:22.696Z,15.20
2018-09-09T21:09:54.085Z,15.20
2018-09-09T21:12:25.665Z,15.10
2018-09-09T21:14:57.074Z,15.10
2018-09-09T21:17:28.496Z,15.00
2018-09-09T21:19:59.967Z,14.90
2018-09-09T21:22:31.920Z,14.90
2018-09-09T21:25:03.281Z,14.80
2018-09-09T21:27:49.577Z,14.90
2018-09-09T21:30:20.967Z,14.80
2018-09-09T21:32:52.383Z,14.80
2018-09-09T21:35:23.732Z,14.80
2018-09-09T21:37:55.037Z,14.70
2018-09-09T21:40:26.337Z,14.70
2018-09-09T21:42:57.684Z,14.60
2018-09-09T21:45:29.023Z,14.70
2018-09-09T21:48:00.277Z,14.60
2018-09-09T21:50:31.618Z,14.60
2018-09-09T21:53:02.909Z,14.50
2018-09-09T21:55:34.217Z,14.50
2018-09-09T21:58:05.481Z,14.50
2018-09-09T22:00:42.592Z,14.30
2018-09-09T22:03:13.845Z,14.30
2018-09-09T22:05:45.130Z,14.30
2018-09-09T22:08:16.419Z,14.30
2018-09-09T22:10:47.750Z,14.30
2018-09-09T22:13:19.094Z,14.20
2018-09-09T22:15:50.442Z,14.20
2018-09-09T22:18:21.717Z,14.20
2018-09-09T22:20:53.019Z,14.10
2018-09-09T22:23:24.309Z,14.00
2018-09-09T22:25:55.580Z,13.90
2018-09-09T22:28:26.856Z,14.00
2018-09-09T22:30:58.189Z,13.90
2018-09-09T22:33:29.503Z,14.00
2018-09-09T22:36:00.775Z,13.90
2018-09-09T22:38:32.221Z,13.80
2018-09-09T22:41:03.611Z,13.80
2018-09-09T22:43:35.058Z,13.80
2018-09-09T22:46:06.444Z,13.70
2018-09-09T22:48:37.826Z,13.70
2018-09-09T22:51:09.194Z,13.80
2018-09-09T22:53:40.589Z,13.70
2018-09-09T22:56:11.959Z,13.70
2018-09-09T22:58:43.294Z,13.60
2018-09-09T23:01:14.633Z,13.60
2018-09-09T23:03:46.081Z,13.60
2018-09-09T23:06:17.505Z,13.60
2018-09-09T23:08:48.904Z,13.50
2018-09-09T23:11:20.271Z,13.70
2018-09-09T23:13:51.647Z,13.70
2018-09-09T23:16:22.992Z,13.50
2018-09-09T23:18:54.362Z,13.40
2018-09-09T23:21:25.809Z,13.30
2018-09-09T23:23:57.299Z,13.30
2018-09-09T23:26:28.667Z,13.20
2018-09-09T23:29:00.017Z,13.20
2018-09-09T23:31:31.373Z,13.20
2018-09-09T23:34:02.734Z,13.40
2018-09-09T23:36:34.138Z,13.30
2018-09-09T23:39:05.546Z,13.20
2018-09-09T23:41:36.909Z,13.10
2018-09-09T23:44:08.431Z,13.20
2018-09-09T23:46:39.720Z,13.20
2018-09-09T23:49:11.027Z,13.10
2018-09-09T23:51:42.391Z,13.00
2018-09-09T23:54:13.754Z,13.00
2018-09-09T23:56:45.059Z,12.90
2018-09-09T23:59:16.437Z,12.90
